Lecompte, Louisiana
Current Conditions -  °F | °C
As of 1:53 AM on Monday 22 Dec 2014 (Local Time) from KAEX Reporting Station
Haze Haze  
Wind Chill: 47°   Ceiling: 200
Heat Index: 49°   Visibility: 4mi
Dew Point: 49°   Wind: 5mph
Humidity: 100%   Direction: 220°SW
Pressure: 29.88"   Gusts: NA
Location:  31.09°N, 92.4°W
Report Text: KAEX 220753Z 22004KT 4SM BR OVC002 09/09 A2988 RMK AO2 SLP123 T00940094
Loading
Personal Weather Stations






























Interactive Weather Map New forecast layout! Learn more

10-Day Weather Forecast

Advertisements
Track Severe Weather on mobile